sensor_id;sensor_type;location;lat;lon;timestamp;P1;durP1;ratioP1;P2;durP2;ratioP2
5539;SDS011;2792;52.452;9.752;2022-09-13T00:01:21;6.27;;;3.33;;
5539;SDS011;2792;52.452;9.752;2022-09-13T00:03:48;6.40;;;3.30;;
5539;SDS011;2792;52.452;9.752;2022-09-13T00:06:16;4.03;;;3.63;;
5539;SDS011;2792;52.452;9.752;2022-09-13T00:08:44;4.93;;;3.47;;
5539;SDS011;2792;52.452;9.752;2022-09-13T00:11:13;4.23;;;3.23;;
5539;SDS011;2792;52.452;9.752;2022-09-13T00:13:41;4.20;;;3.37;;
5539;SDS011;2792;52.452;9.752;2022-09-13T00:16:09;4.87;;;3.40;;
5539;SDS011;2792;52.452;9.752;2022-09-13T00:18:36;3.63;;;3.33;;
5539;SDS011;2792;52.452;9.752;2022-09-13T00:21:04;4.87;;;3.40;;
5539;SDS011;2792;52.452;9.752;2022-09-13T00:23:33;4.50;;;3.83;;
5539;SDS011;2792;52.452;9.752;2022-09-13T00:26:03;4.30;;;3.50;;
5539;SDS011;2792;52.452;9.752;2022-09-13T00:28:32;4.47;;;3.60;;
5539;SDS011;2792;52.452;9.752;2022-09-13T00:30:59;6.03;;;3.67;;
5539;SDS011;2792;52.452;9.752;2022-09-13T00:33:26;5.50;;;3.80;;
5539;SDS011;2792;52.452;9.752;2022-09-13T00:35:52;4.50;;;3.53;;
5539;SDS011;2792;52.452;9.752;2022-09-13T00:38:19;3.80;;;3.43;;
5539;SDS011;2792;52.452;9.752;2022-09-13T00:40:47;4.80;;;3.77;;
5539;SDS011;2792;52.452;9.752;2022-09-13T00:43:15;6.00;;;4.00;;
5539;SDS011;2792;52.452;9.752;2022-09-13T00:45:43;4.30;;;3.30;;
5539;SDS011;2792;52.452;9.752;2022-09-13T00:48:12;4.60;;;3.00;;
5539;SDS011;2792;52.452;9.752;2022-09-13T00:50:43;4.43;;;3.30;;
5539;SDS011;2792;52.452;9.752;2022-09-13T00:53:13;3.83;;;3.40;;
5539;SDS011;2792;52.452;9.752;2022-09-13T00:55:42;5.70;;;3.80;;
5539;SDS011;2792;52.452;9.752;2022-09-13T00:58:12;5.20;;;3.83;;
5539;SDS011;2792;52.452;9.752;2022-09-13T01:00:40;6.87;;;4.17;;
5539;SDS011;2792;52.452;9.752;2022-09-13T01:03:07;5.10;;;3.80;;
5539;SDS011;2792;52.452;9.752;2022-09-13T01:05:37;4.80;;;3.77;;
5539;SDS011;2792;52.452;9.752;2022-09-13T01:08:05;4.27;;;3.40;;
5539;SDS011;2792;52.452;9.752;2022-09-13T01:10:36;4.03;;;3.53;;
5539;SDS011;2792;52.452;9.752;2022-09-13T01:13:07;5.17;;;4.07;;
5539;SDS011;2792;52.452;9.752;2022-09-13T01:15:40;3.57;;;3.27;;
5539;SDS011;2792;52.452;9.752;2022-09-13T01:18:07;3.67;;;2.90;;
5539;SDS011;2792;52.452;9.752;2022-09-13T01:20:39;4.17;;;3.40;;
5539;SDS011;2792;52.452;9.752;2022-09-13T01:23:16;4.00;;;3.40;;
5539;SDS011;2792;52.452;9.752;2022-09-13T01:29:04;4.67;;;3.67;;
5539;SDS011;2792;52.452;9.752;2022-09-13T01:31:44;3.30;;;3.00;;
5539;SDS011;2792;52.452;9.752;2022-09-13T01:34:21;4.60;;;3.63;;
5539;SDS011;2792;52.452;9.752;2022-09-13T01:36:55;4.07;;;3.67;;
5539;SDS011;2792;52.452;9.752;2022-09-13T01:39:33;5.30;;;3.80;;
5539;SDS011;2792;52.452;9.752;2022-09-13T01:42:11;3.53;;;3.20;;
5539;SDS011;2792;52.452;9.752;2022-09-13T01:44:48;3.90;;;3.53;;
5539;SDS011;2792;52.452;9.752;2022-09-13T01:47:26;4.30;;;3.60;;
5539;SDS011;2792;52.452;9.752;2022-09-13T01:49:57;4.60;;;3.37;;
5539;SDS011;2792;52.452;9.752;2022-09-13T01:52:28;4.70;;;3.90;;
5539;SDS011;2792;52.452;9.752;2022-09-13T01:55:02;4.30;;;3.40;;
5539;SDS011;2792;52.452;9.752;2022-09-13T01:57:31;4.00;;;3.60;;
5539;SDS011;2792;52.452;9.752;2022-09-13T02:00:02;4.10;;;3.53;;
5539;SDS011;2792;52.452;9.752;2022-09-13T02:02:33;5.30;;;3.97;;
5539;SDS011;2792;52.452;9.752;2022-09-13T02:05:05;5.23;;;3.93;;
5539;SDS011;2792;52.452;9.752;2022-09-13T02:07:35;3.90;;;3.47;;
5539;SDS011;2792;52.452;9.752;2022-09-13T02:10:05;4.37;;;3.73;;
5539;SDS011;2792;52.452;9.752;2022-09-13T02:12:33;6.70;;;4.23;;
5539;SDS011;2792;52.452;9.752;2022-09-13T02:15:02;4.83;;;3.87;;
5539;SDS011;2792;52.452;9.752;2022-09-13T02:17:35;4.30;;;3.50;;
5539;SDS011;2792;52.452;9.752;2022-09-13T02:20:04;6.97;;;3.67;;
5539;SDS011;2792;52.452;9.752;2022-09-13T02:22:36;5.00;;;3.90;;
5539;SDS011;2792;52.452;9.752;2022-09-13T02:25:05;4.03;;;3.40;;
5539;SDS011;2792;52.452;9.752;2022-09-13T02:27:35;4.13;;;3.63;;
5539;SDS011;2792;52.452;9.752;2022-09-13T02:30:04;4.27;;;3.83;;
5539;SDS011;2792;52.452;9.752;2022-09-13T02:32:33;5.57;;;4.27;;
5539;SDS011;2792;52.452;9.752;2022-09-13T02:35:05;4.67;;;3.93;;
5539;SDS011;2792;52.452;9.752;2022-09-13T02:37:35;6.03;;;4.20;;
5539;SDS011;2792;52.452;9.752;2022-09-13T02:40:05;4.70;;;4.20;;
5539;SDS011;2792;52.452;9.752;2022-09-13T02:42:35;5.10;;;4.20;;
5539;SDS011;2792;52.452;9.752;2022-09-13T02:45:06;4.90;;;4.20;;
5539;SDS011;2792;52.452;9.752;2022-09-13T02:47:36;6.57;;;4.87;;
5539;SDS011;2792;52.452;9.752;2022-09-13T02:50:10;6.47;;;5.10;;
5539;SDS011;2792;52.452;9.752;2022-09-13T02:52:55;9.97;;;5.30;;
5539;SDS011;2792;52.452;9.752;2022-09-13T02:55:28;7.63;;;4.33;;
5539;SDS011;2792;52.452;9.752;2022-09-13T02:57:59;6.23;;;5.10;;
5539;SDS011;2792;52.452;9.752;2022-09-13T03:00:27;6.53;;;4.87;;
5539;SDS011;2792;52.452;9.752;2022-09-13T03:02:55;6.67;;;5.30;;
5539;SDS011;2792;52.452;9.752;2022-09-13T03:05:23;12.70;;;5.33;;
5539;SDS011;2792;52.452;9.752;2022-09-13T03:07:50;6.70;;;5.00;;
5539;SDS011;2792;52.452;9.752;2022-09-13T03:10:17;7.00;;;5.60;;
5539;SDS011;2792;52.452;9.752;2022-09-13T03:13:04;7.20;;;5.60;;
5539;SDS011;2792;52.452;9.752;2022-09-13T03:15:44;9.63;;;6.13;;
5539;SDS011;2792;52.452;9.752;2022-09-13T03:18:22;7.37;;;5.57;;
5539;SDS011;2792;52.452;9.752;2022-09-13T03:21:01;7.77;;;6.90;;
5539;SDS011;2792;52.452;9.752;2022-09-13T03:23:39;7.87;;;5.90;;
5539;SDS011;2792;52.452;9.752;2022-09-13T03:26:14;9.70;;;6.53;;
5539;SDS011;2792;52.452;9.752;2022-09-13T03:28:49;7.90;;;5.77;;
5539;SDS011;2792;52.452;9.752;2022-09-13T03:31:26;8.63;;;6.27;;
5539;SDS011;2792;52.452;9.752;2022-09-13T03:33:58;7.97;;;6.20;;
5539;SDS011;2792;52.452;9.752;2022-09-13T03:36:31;7.77;;;5.87;;
5539;SDS011;2792;52.452;9.752;2022-09-13T03:39:00;6.33;;;5.70;;
5539;SDS011;2792;52.452;9.752;2022-09-13T03:41:31;7.00;;;5.90;;
5539;SDS011;2792;52.452;9.752;2022-09-13T03:44:01;9.10;;;6.47;;
5539;SDS011;2792;52.452;9.752;2022-09-13T03:46:30;7.63;;;6.23;;
5539;SDS011;2792;52.452;9.752;2022-09-13T03:49:00;7.40;;;6.37;;
5539;SDS011;2792;52.452;9.752;2022-09-13T03:51:28;7.83;;;5.63;;
5539;SDS011;2792;52.452;9.752;2022-09-13T03:53:55;9.30;;;6.80;;
5539;SDS011;2792;52.452;9.752;2022-09-13T03:56:25;7.67;;;6.10;;
5539;SDS011;2792;52.452;9.752;2022-09-13T03:58:51;9.90;;;6.13;;
5539;SDS011;2792;52.452;9.752;2022-09-13T04:01:19;9.10;;;7.03;;
5539;SDS011;2792;52.452;9.752;2022-09-13T04:03:47;11.00;;;7.40;;
5539;SDS011;2792;52.452;9.752;2022-09-13T04:06:15;11.40;;;7.60;;
5539;SDS011;2792;52.452;9.752;2022-09-13T04:08:42;8.00;;;7.00;;
5539;SDS011;2792;52.452;9.752;2022-09-13T04:11:09;9.23;;;7.20;;
5539;SDS011;2792;52.452;9.752;2022-09-13T04:13:36;9.13;;;7.20;;
5539;SDS011;2792;52.452;9.752;2022-09-13T04:16:03;10.43;;;7.40;;
5539;SDS011;2792;52.452;9.752;2022-09-13T04:18:30;9.20;;;6.87;;
5539;SDS011;2792;52.452;9.752;2022-09-13T04:20:58;11.63;;;8.40;;
5539;SDS011;2792;52.452;9.752;2022-09-13T04:23:26;8.60;;;7.37;;
5539;SDS011;2792;52.452;9.752;2022-09-13T04:25:54;11.03;;;7.00;;
5539;SDS011;2792;52.452;9.752;2022-09-13T04:28:21;9.80;;;7.20;;
5539;SDS011;2792;52.452;9.752;2022-09-13T04:30:48;8.70;;;7.60;;
5539;SDS011;2792;52.452;9.752;2022-09-13T04:33:14;8.60;;;6.30;;
5539;SDS011;2792;52.452;9.752;2022-09-13T04:35:42;12.20;;;7.40;;
5539;SDS011;2792;52.452;9.752;2022-09-13T04:38:09;8.73;;;7.20;;
5539;SDS011;2792;52.452;9.752;2022-09-13T04:40:36;8.57;;;6.33;;
5539;SDS011;2792;52.452;9.752;2022-09-13T04:43:04;9.20;;;6.20;;
5539;SDS011;2792;52.452;9.752;2022-09-13T04:45:31;7.63;;;6.83;;
5539;SDS011;2792;52.452;9.752;2022-09-13T04:47:57;7.50;;;5.90;;
5539;SDS011;2792;52.452;9.752;2022-09-13T04:50:24;7.80;;;7.10;;
5539;SDS011;2792;52.452;9.752;2022-09-13T04:52:53;8.30;;;7.13;;
5539;SDS011;2792;52.452;9.752;2022-09-13T04:55:19;8.47;;;7.13;;
5539;SDS011;2792;52.452;9.752;2022-09-13T04:57:48;8.47;;;6.90;;
5539;SDS011;2792;52.452;9.752;2022-09-13T05:00:18;7.33;;;6.43;;
5539;SDS011;2792;52.452;9.752;2022-09-13T05:02:44;9.40;;;6.90;;
5539;SDS011;2792;52.452;9.752;2022-09-13T05:05:11;9.43;;;7.27;;
5539;SDS011;2792;52.452;9.752;2022-09-13T05:07:37;8.50;;;7.50;;
5539;SDS011;2792;52.452;9.752;2022-09-13T05:10:04;6.83;;;6.10;;
5539;SDS011;2792;52.452;9.752;2022-09-13T05:12:32;7.33;;;6.00;;
5539;SDS011;2792;52.452;9.752;2022-09-13T05:14:59;7.70;;;6.83;;
5539;SDS011;2792;52.452;9.752;2022-09-13T05:17:26;7.43;;;6.00;;
5539;SDS011;2792;52.452;9.752;2022-09-13T05:19:54;7.70;;;6.53;;
5539;SDS011;2792;52.452;9.752;2022-09-13T05:22:21;7.30;;;6.60;;
5539;SDS011;2792;52.452;9.752;2022-09-13T05:24:47;8.00;;;6.63;;
5539;SDS011;2792;52.452;9.752;2022-09-13T05:27:14;7.70;;;6.87;;
5539;SDS011;2792;52.452;9.752;2022-09-13T05:29:40;9.30;;;7.60;;
5539;SDS011;2792;52.452;9.752;2022-09-13T05:32:09;8.60;;;7.67;;
5539;SDS011;2792;52.452;9.752;2022-09-13T05:34:35;7.80;;;6.87;;
5539;SDS011;2792;52.452;9.752;2022-09-13T05:37:02;7.90;;;6.90;;
5539;SDS011;2792;52.452;9.752;2022-09-13T05:39:29;9.03;;;7.13;;
5539;SDS011;2792;52.452;9.752;2022-09-13T05:41:55;8.80;;;7.43;;
5539;SDS011;2792;52.452;9.752;2022-09-13T05:44:23;8.23;;;7.00;;
5539;SDS011;2792;52.452;9.752;2022-09-13T05:46:49;10.00;;;7.77;;
5539;SDS011;2792;52.452;9.752;2022-09-13T05:49:17;9.63;;;7.40;;
5539;SDS011;2792;52.452;9.752;2022-09-13T05:51:43;9.23;;;7.37;;
5539;SDS011;2792;52.452;9.752;2022-09-13T05:54:10;9.20;;;7.33;;
5539;SDS011;2792;52.452;9.752;2022-09-13T05:56:37;10.20;;;7.40;;
5539;SDS011;2792;52.452;9.752;2022-09-13T05:59:04;10.10;;;9.10;;
5539;SDS011;2792;52.452;9.752;2022-09-13T06:01:31;10.03;;;8.50;;
5539;SDS011;2792;52.452;9.752;2022-09-13T06:03:57;12.87;;;8.53;;
5539;SDS011;2792;52.452;9.752;2022-09-13T06:06:26;11.00;;;8.70;;
5539;SDS011;2792;52.452;9.752;2022-09-13T06:08:52;9.93;;;8.20;;
5539;SDS011;2792;52.452;9.752;2022-09-13T06:11:19;8.43;;;7.50;;
5539;SDS011;2792;52.452;9.752;2022-09-13T06:13:46;16.63;;;9.87;;
5539;SDS011;2792;52.452;9.752;2022-09-13T06:16:17;11.37;;;8.27;;
5539;SDS011;2792;52.452;9.752;2022-09-13T06:18:43;9.50;;;7.10;;
5539;SDS011;2792;52.452;9.752;2022-09-13T06:21:11;8.90;;;6.50;;
5539;SDS011;2792;52.452;9.752;2022-09-13T06:23:43;8.80;;;7.33;;
5539;SDS011;2792;52.452;9.752;2022-09-13T06:26:10;9.20;;;7.80;;
5539;SDS011;2792;52.452;9.752;2022-09-13T06:28:37;12.20;;;7.27;;
5539;SDS011;2792;52.452;9.752;2022-09-13T06:31:07;7.70;;;6.63;;
5539;SDS011;2792;52.452;9.752;2022-09-13T06:33:35;9.47;;;6.50;;
5539;SDS011;2792;52.452;9.752;2022-09-13T06:36:02;9.17;;;6.13;;
5539;SDS011;2792;52.452;9.752;2022-09-13T06:38:30;11.10;;;8.50;;
5539;SDS011;2792;52.452;9.752;2022-09-13T06:41:02;8.80;;;7.23;;
5539;SDS011;2792;52.452;9.752;2022-09-13T06:43:30;9.40;;;6.87;;
5539;SDS011;2792;52.452;9.752;2022-09-13T06:46:00;9.57;;;6.70;;
5539;SDS011;2792;52.452;9.752;2022-09-13T06:48:29;9.23;;;6.80;;
5539;SDS011;2792;52.452;9.752;2022-09-13T06:50:57;8.23;;;6.97;;
5539;SDS011;2792;52.452;9.752;2022-09-13T06:53:24;11.77;;;8.27;;
5539;SDS011;2792;52.452;9.752;2022-09-13T06:55:58;9.33;;;7.63;;
5539;SDS011;2792;52.452;9.752;2022-09-13T06:58:27;9.77;;;7.20;;
5539;SDS011;2792;52.452;9.752;2022-09-13T07:01:03;14.00;;;8.03;;
5539;SDS011;2792;52.452;9.752;2022-09-13T07:03:31;8.60;;;6.87;;
5539;SDS011;2792;52.452;9.752;2022-09-13T07:05:57;10.70;;;7.67;;
5539;SDS011;2792;52.452;9.752;2022-09-13T07:08:24;8.97;;;6.83;;
5539;SDS011;2792;52.452;9.752;2022-09-13T07:10:50;8.67;;;7.63;;
5539;SDS011;2792;52.452;9.752;2022-09-13T07:13:17;13.13;;;7.90;;
5539;SDS011;2792;52.452;9.752;2022-09-13T07:15:44;9.47;;;7.50;;
5539;SDS011;2792;52.452;9.752;2022-09-13T07:18:11;8.27;;;6.70;;
5539;SDS011;2792;52.452;9.752;2022-09-13T07:20:38;9.83;;;7.57;;
5539;SDS011;2792;52.452;9.752;2022-09-13T07:23:04;8.50;;;6.30;;
5539;SDS011;2792;52.452;9.752;2022-09-13T07:25:31;17.10;;;6.60;;
5539;SDS011;2792;52.452;9.752;2022-09-13T07:27:57;9.27;;;6.83;;
5539;SDS011;2792;52.452;9.752;2022-09-13T07:30:24;8.40;;;6.47;;
5539;SDS011;2792;52.452;9.752;2022-09-13T07:32:52;13.50;;;8.10;;
5539;SDS011;2792;52.452;9.752;2022-09-13T07:35:18;9.50;;;7.60;;
5539;SDS011;2792;52.452;9.752;2022-09-13T07:37:45;8.87;;;7.47;;
5539;SDS011;2792;52.452;9.752;2022-09-13T07:40:11;7.53;;;6.73;;
5539;SDS011;2792;52.452;9.752;2022-09-13T07:42:38;13.60;;;8.40;;
5539;SDS011;2792;52.452;9.752;2022-09-13T07:45:05;9.10;;;7.80;;
5539;SDS011;2792;52.452;9.752;2022-09-13T07:47:32;11.40;;;8.50;;
5539;SDS011;2792;52.452;9.752;2022-09-13T07:50:00;11.90;;;8.93;;
5539;SDS011;2792;52.452;9.752;2022-09-13T07:52:27;10.40;;;7.67;;
5539;SDS011;2792;52.452;9.752;2022-09-13T07:54:54;14.03;;;8.90;;
5539;SDS011;2792;52.452;9.752;2022-09-13T07:57:20;12.60;;;8.83;;
5539;SDS011;2792;52.452;9.752;2022-09-13T07:59:47;11.67;;;9.00;;
5539;SDS011;2792;52.452;9.752;2022-09-13T08:02:13;16.60;;;8.20;;
5539;SDS011;2792;52.452;9.752;2022-09-13T08:04:41;11.43;;;8.60;;
5539;SDS011;2792;52.452;9.752;2022-09-13T08:07:08;11.43;;;9.40;;
5539;SDS011;2792;52.452;9.752;2022-09-13T08:09:35;15.63;;;10.30;;
5539;SDS011;2792;52.452;9.752;2022-09-13T08:12:02;14.83;;;10.90;;
5539;SDS011;2792;52.452;9.752;2022-09-13T08:14:28;14.30;;;10.70;;
5539;SDS011;2792;52.452;9.752;2022-09-13T08:16:55;13.40;;;10.10;;
5539;SDS011;2792;52.452;9.752;2022-09-13T08:19:21;14.03;;;11.00;;
5539;SDS011;2792;52.452;9.752;2022-09-13T08:21:48;19.80;;;11.13;;
5539;SDS011;2792;52.452;9.752;2022-09-13T08:24:17;16.43;;;11.50;;
5539;SDS011;2792;52.452;9.752;2022-09-13T08:26:45;14.43;;;11.43;;
5539;SDS011;2792;52.452;9.752;2022-09-13T08:29:13;17.23;;;11.90;;
5539;SDS011;2792;52.452;9.752;2022-09-13T08:31:40;17.50;;;12.13;;
5539;SDS011;2792;52.452;9.752;2022-09-13T08:34:08;16.10;;;12.37;;
5539;SDS011;2792;52.452;9.752;2022-09-13T08:36:36;18.23;;;11.50;;
5539;SDS011;2792;52.452;9.752;2022-09-13T08:39:05;15.90;;;11.77;;
5539;SDS011;2792;52.452;9.752;2022-09-13T08:41:50;21.20;;;13.30;;
5539;SDS011;2792;52.452;9.752;2022-09-13T08:44:24;15.10;;;11.63;;
5539;SDS011;2792;52.452;9.752;2022-09-13T08:46:54;13.70;;;11.30;;
5539;SDS011;2792;52.452;9.752;2022-09-13T08:49:24;15.30;;;11.83;;
5539;SDS011;2792;52.452;9.752;2022-09-13T08:51:53;17.03;;;13.23;;
5539;SDS011;2792;52.452;9.752;2022-09-13T08:54:21;16.80;;;12.80;;
5539;SDS011;2792;52.452;9.752;2022-09-13T08:56:50;16.93;;;12.70;;
5539;SDS011;2792;52.452;9.752;2022-09-13T08:59:23;15.90;;;12.40;;
5539;SDS011;2792;52.452;9.752;2022-09-13T09:01:57;17.00;;;12.83;;
5539;SDS011;2792;52.452;9.752;2022-09-13T09:04:32;16.23;;;12.90;;
5539;SDS011;2792;52.452;9.752;2022-09-13T09:07:03;14.00;;;11.80;;
5539;SDS011;2792;52.452;9.752;2022-09-13T09:09:34;16.00;;;12.13;;
5539;SDS011;2792;52.452;9.752;2022-09-13T09:12:10;17.60;;;11.80;;
5539;SDS011;2792;52.452;9.752;2022-09-13T09:14:43;16.97;;;12.50;;
5539;SDS011;2792;52.452;9.752;2022-09-13T09:17:13;15.13;;;11.93;;
5539;SDS011;2792;52.452;9.752;2022-09-13T09:19:42;16.37;;;12.67;;
5539;SDS011;2792;52.452;9.752;2022-09-13T09:22:14;13.40;;;11.10;;
5539;SDS011;2792;52.452;9.752;2022-09-13T09:24:43;16.53;;;11.50;;
5539;SDS011;2792;52.452;9.752;2022-09-13T09:27:13;14.97;;;11.70;;
5539;SDS011;2792;52.452;9.752;2022-09-13T09:29:41;15.10;;;11.43;;
5539;SDS011;2792;52.452;9.752;2022-09-13T09:32:11;12.40;;;10.60;;
5539;SDS011;2792;52.452;9.752;2022-09-13T09:34:47;14.33;;;11.50;;
5539;SDS011;2792;52.452;9.752;2022-09-13T09:37:20;12.90;;;10.40;;
5539;SDS011;2792;52.452;9.752;2022-09-13T09:39:48;13.10;;;10.20;;
5539;SDS011;2792;52.452;9.752;2022-09-13T09:42:17;13.93;;;11.50;;
5539;SDS011;2792;52.452;9.752;2022-09-13T09:44:47;13.60;;;10.53;;
5539;SDS011;2792;52.452;9.752;2022-09-13T09:47:16;16.20;;;11.70;;
5539;SDS011;2792;52.452;9.752;2022-09-13T09:49:45;15.47;;;11.83;;
5539;SDS011;2792;52.452;9.752;2022-09-13T09:52:30;14.80;;;11.50;;
5539;SDS011;2792;52.452;9.752;2022-09-13T09:55:00;13.53;;;10.47;;
5539;SDS011;2792;52.452;9.752;2022-09-13T10:00:18;14.00;;;11.70;;
5539;SDS011;2792;52.452;9.752;2022-09-13T10:02:46;14.57;;;11.33;;
5539;SDS011;2792;52.452;9.752;2022-09-13T10:05:16;17.77;;;10.13;;
5539;SDS011;2792;52.452;9.752;2022-09-13T10:07:48;14.17;;;9.90;;
5539;SDS011;2792;52.452;9.752;2022-09-13T10:10:19;17.47;;;11.00;;
5539;SDS011;2792;52.452;9.752;2022-09-13T10:12:48;15.50;;;11.83;;
5539;SDS011;2792;52.452;9.752;2022-09-13T10:15:18;15.20;;;11.47;;
5539;SDS011;2792;52.452;9.752;2022-09-13T10:17:59;12.60;;;9.53;;
5539;SDS011;2792;52.452;9.752;2022-09-13T10:20:31;15.50;;;10.53;;
5539;SDS011;2792;52.452;9.752;2022-09-13T10:23:14;14.33;;;12.33;;
5539;SDS011;2792;52.452;9.752;2022-09-13T10:25:43;15.43;;;11.60;;
5539;SDS011;2792;52.452;9.752;2022-09-13T10:28:12;18.00;;;12.17;;
5539;SDS011;2792;52.452;9.752;2022-09-13T10:30:44;14.37;;;10.10;;
5539;SDS011;2792;52.452;9.752;2022-09-13T10:33:18;17.10;;;11.70;;
5539;SDS011;2792;52.452;9.752;2022-09-13T10:35:52;16.57;;;11.40;;
5539;SDS011;2792;52.452;9.752;2022-09-13T10:38:23;16.30;;;11.77;;
5539;SDS011;2792;52.452;9.752;2022-09-13T10:40:52;16.33;;;12.10;;
5539;SDS011;2792;52.452;9.752;2022-09-13T10:43:19;19.00;;;12.67;;
5539;SDS011;2792;52.452;9.752;2022-09-13T10:45:49;12.50;;;10.10;;
5539;SDS011;2792;52.452;9.752;2022-09-13T10:48:17;25.33;;;10.63;;
5539;SDS011;2792;52.452;9.752;2022-09-13T10:50:58;12.87;;;10.40;;
5539;SDS011;2792;52.452;9.752;2022-09-13T10:53:31;17.10;;;12.13;;
5539;SDS011;2792;52.452;9.752;2022-09-13T10:56:00;16.73;;;11.60;;
5539;SDS011;2792;52.452;9.752;2022-09-13T10:58:27;15.17;;;11.33;;
5539;SDS011;2792;52.452;9.752;2022-09-13T11:07:14;12.83;;;10.40;;
5539;SDS011;2792;52.452;9.752;2022-09-13T11:09:46;14.20;;;10.93;;
5539;SDS011;2792;52.452;9.752;2022-09-13T11:12:17;15.57;;;12.50;;
5539;SDS011;2792;52.452;9.752;2022-09-13T11:14:49;14.17;;;11.67;;
5539;SDS011;2792;52.452;9.752;2022-09-13T11:17:27;16.90;;;12.20;;
5539;SDS011;2792;52.452;9.752;2022-09-13T11:20:12;15.40;;;12.57;;
5539;SDS011;2792;52.452;9.752;2022-09-13T11:23:04;14.53;;;11.20;;
5539;SDS011;2792;52.452;9.752;2022-09-13T11:25:42;13.20;;;11.73;;
5539;SDS011;2792;52.452;9.752;2022-09-13T11:28:21;15.10;;;12.60;;
5539;SDS011;2792;52.452;9.752;2022-09-13T11:30:57;15.80;;;11.40;;
5539;SDS011;2792;52.452;9.752;2022-09-13T11:33:43;19.37;;;13.80;;
5539;SDS011;2792;52.452;9.752;2022-09-13T11:36:27;23.33;;;12.80;;
5539;SDS011;2792;52.452;9.752;2022-09-13T11:39:06;17.17;;;14.00;;
5539;SDS011;2792;52.452;9.752;2022-09-13T11:41:42;18.40;;;14.00;;
5539;SDS011;2792;52.452;9.752;2022-09-13T11:44:21;15.13;;;13.30;;
5539;SDS011;2792;52.452;9.752;2022-09-13T11:46:56;18.60;;;14.80;;
5539;SDS011;2792;52.452;9.752;2022-09-13T11:52:43;18.60;;;14.40;;
5539;SDS011;2792;52.452;9.752;2022-09-13T11:55:15;19.93;;;14.93;;
5539;SDS011;2792;52.452;9.752;2022-09-13T11:57:43;21.10;;;15.30;;
5539;SDS011;2792;52.452;9.752;2022-09-13T12:00:14;19.40;;;16.40;;
5539;SDS011;2792;52.452;9.752;2022-09-13T12:02:46;22.10;;;16.40;;
5539;SDS011;2792;52.452;9.752;2022-09-13T12:05:18;20.60;;;15.57;;
5539;SDS011;2792;52.452;9.752;2022-09-13T12:07:50;28.93;;;18.53;;
5539;SDS011;2792;52.452;9.752;2022-09-13T12:10:21;21.03;;;16.03;;
5539;SDS011;2792;52.452;9.752;2022-09-13T12:12:49;21.90;;;18.03;;
5539;SDS011;2792;52.452;9.752;2022-09-13T12:15:17;28.23;;;18.50;;
5539;SDS011;2792;52.452;9.752;2022-09-13T12:17:48;22.43;;;17.07;;
5539;SDS011;2792;52.452;9.752;2022-09-13T12:20:27;21.90;;;16.33;;
5539;SDS011;2792;52.452;9.752;2022-09-13T12:22:58;22.33;;;17.13;;
5539;SDS011;2792;52.452;9.752;2022-09-13T12:25:28;17.90;;;16.00;;
5539;SDS011;2792;52.452;9.752;2022-09-13T12:28:01;16.90;;;14.73;;
5539;SDS011;2792;52.452;9.752;2022-09-13T12:30:32;16.87;;;14.60;;
5539;SDS011;2792;52.452;9.752;2022-09-13T12:33:05;17.30;;;13.80;;
5539;SDS011;2792;52.452;9.752;2022-09-13T12:35:33;16.37;;;13.73;;
5539;SDS011;2792;52.452;9.752;2022-09-13T12:38:11;17.83;;;14.40;;
5539;SDS011;2792;52.452;9.752;2022-09-13T12:40:50;17.80;;;13.50;;
5539;SDS011;2792;52.452;9.752;2022-09-13T12:46:31;11.13;;;9.97;;
5539;SDS011;2792;52.452;9.752;2022-09-13T12:49:10;11.20;;;10.00;;
5539;SDS011;2792;52.452;9.752;2022-09-13T12:51:56;11.20;;;8.20;;
5539;SDS011;2792;52.452;9.752;2022-09-13T12:54:38;8.43;;;7.27;;
5539;SDS011;2792;52.452;9.752;2022-09-13T12:57:26;6.90;;;6.20;;
5539;SDS011;2792;52.452;9.752;2022-09-13T13:00:08;6.30;;;5.30;;
5539;SDS011;2792;52.452;9.752;2022-09-13T13:02:37;6.80;;;5.20;;
5539;SDS011;2792;52.452;9.752;2022-09-13T13:05:14;6.20;;;4.83;;
5539;SDS011;2792;52.452;9.752;2022-09-13T13:07:48;5.23;;;4.30;;
5539;SDS011;2792;52.452;9.752;2022-09-13T13:10:25;4.93;;;3.63;;
5539;SDS011;2792;52.452;9.752;2022-09-13T13:12:54;3.80;;;3.50;;
5539;SDS011;2792;52.452;9.752;2022-09-13T13:18:23;2.70;;;2.50;;
5539;SDS011;2792;52.452;9.752;2022-09-13T13:21:06;3.27;;;2.10;;
5539;SDS011;2792;52.452;9.752;2022-09-13T13:23:48;5.83;;;3.27;;
5539;SDS011;2792;52.452;9.752;2022-09-13T13:26:54;2.03;;;1.93;;
5539;SDS011;2792;52.452;9.752;2022-09-13T13:29:22;2.00;;;1.90;;
5539;SDS011;2792;52.452;9.752;2022-09-13T13:34:47;4.90;;;1.60;;
5539;SDS011;2792;52.452;9.752;2022-09-13T13:45:56;2.00;;;1.17;;
5539;SDS011;2792;52.452;9.752;2022-09-13T13:48:37;3.53;;;1.40;;
5539;SDS011;2792;52.452;9.752;2022-09-13T13:51:11;2.23;;;1.50;;
5539;SDS011;2792;52.452;9.752;2022-09-13T13:53:56;2.20;;;1.20;;
5539;SDS011;2792;52.452;9.752;2022-09-13T13:56:29;2.50;;;1.50;;
5539;SDS011;2792;52.452;9.752;2022-09-13T13:59:02;2.37;;;1.43;;
5539;SDS011;2792;52.452;9.752;2022-09-13T14:01:34;2.20;;;1.33;;
5539;SDS011;2792;52.452;9.752;2022-09-13T14:04:09;2.07;;;1.40;;
5539;SDS011;2792;52.452;9.752;2022-09-13T14:07:01;4.33;;;1.33;;
5539;SDS011;2792;52.452;9.752;2022-09-13T14:09:35;2.80;;;1.43;;
5539;SDS011;2792;52.452;9.752;2022-09-13T14:12:10;3.10;;;1.67;;
5539;SDS011;2792;52.452;9.752;2022-09-13T14:14:47;4.03;;;1.50;;
5539;SDS011;2792;52.452;9.752;2022-09-13T14:20:15;2.53;;;1.60;;
5539;SDS011;2792;52.452;9.752;2022-09-13T14:22:42;3.83;;;1.50;;
5539;SDS011;2792;52.452;9.752;2022-09-13T14:25:13;5.90;;;1.90;;
5539;SDS011;2792;52.452;9.752;2022-09-13T14:27:47;2.60;;;1.27;;
5539;SDS011;2792;52.452;9.752;2022-09-13T14:30:17;1.50;;;1.40;;
5539;SDS011;2792;52.452;9.752;2022-09-13T14:32:46;2.27;;;1.57;;
5539;SDS011;2792;52.452;9.752;2022-09-13T14:35:21;4.03;;;1.73;;
5539;SDS011;2792;52.452;9.752;2022-09-13T14:37:50;6.80;;;1.50;;
5539;SDS011;2792;52.452;9.752;2022-09-13T14:40:18;4.33;;;1.53;;
5539;SDS011;2792;52.452;9.752;2022-09-13T14:42:46;3.03;;;1.43;;
5539;SDS011;2792;52.452;9.752;2022-09-13T14:45:17;3.53;;;1.57;;
5539;SDS011;2792;52.452;9.752;2022-09-13T14:47:46;5.17;;;1.70;;
5539;SDS011;2792;52.452;9.752;2022-09-13T14:50:17;2.50;;;1.50;;
5539;SDS011;2792;52.452;9.752;2022-09-13T14:52:46;4.50;;;1.70;;
5539;SDS011;2792;52.452;9.752;2022-09-13T14:55:15;2.87;;;1.40;;
5539;SDS011;2792;52.452;9.752;2022-09-13T14:57:45;5.77;;;1.77;;
5539;SDS011;2792;52.452;9.752;2022-09-13T15:00:15;3.47;;;1.20;;
5539;SDS011;2792;52.452;9.752;2022-09-13T15:02:45;3.70;;;1.73;;
5539;SDS011;2792;52.452;9.752;2022-09-13T15:05:15;4.40;;;1.80;;
5539;SDS011;2792;52.452;9.752;2022-09-13T15:07:43;4.10;;;1.80;;
5539;SDS011;2792;52.452;9.752;2022-09-13T15:10:18;2.30;;;1.50;;
5539;SDS011;2792;52.452;9.752;2022-09-13T15:12:49;3.77;;;1.63;;
5539;SDS011;2792;52.452;9.752;2022-09-13T15:15:23;7.60;;;1.80;;
5539;SDS011;2792;52.452;9.752;2022-09-13T15:17:52;6.20;;;1.87;;
5539;SDS011;2792;52.452;9.752;2022-09-13T15:20:20;3.50;;;1.77;;
5539;SDS011;2792;52.452;9.752;2022-09-13T15:22:47;3.17;;;1.20;;
5539;SDS011;2792;52.452;9.752;2022-09-13T15:25:19;1.93;;;1.37;;
5539;SDS011;2792;52.452;9.752;2022-09-13T15:27:47;6.90;;;1.33;;
5539;SDS011;2792;52.452;9.752;2022-09-13T15:30:19;5.93;;;1.40;;
5539;SDS011;2792;52.452;9.752;2022-09-13T15:32:48;2.40;;;1.30;;
5539;SDS011;2792;52.452;9.752;2022-09-13T15:35:16;5.13;;;1.30;;
5539;SDS011;2792;52.452;9.752;2022-09-13T15:37:44;2.00;;;1.03;;
5539;SDS011;2792;52.452;9.752;2022-09-13T15:40:12;3.77;;;1.20;;
5539;SDS011;2792;52.452;9.752;2022-09-13T15:42:43;1.60;;;1.20;;
5539;SDS011;2792;52.452;9.752;2022-09-13T15:45:10;2.77;;;1.30;;
5539;SDS011;2792;52.452;9.752;2022-09-13T15:47:37;3.90;;;1.20;;
5539;SDS011;2792;52.452;9.752;2022-09-13T15:50:05;2.40;;;1.30;;
5539;SDS011;2792;52.452;9.752;2022-09-13T15:52:32;2.40;;;1.30;;
5539;SDS011;2792;52.452;9.752;2022-09-13T15:54:59;1.37;;;1.10;;
5539;SDS011;2792;52.452;9.752;2022-09-13T15:57:26;8.90;;;1.30;;
5539;SDS011;2792;52.452;9.752;2022-09-13T15:59:54;2.80;;;1.03;;
5539;SDS011;2792;52.452;9.752;2022-09-13T16:02:23;1.37;;;0.93;;